Time;durP1;ratioP1;P1;durP2;ratioP2;P2;SDS_P1;SDS_P2;PMS_P1;PMS_P2;Temp;Humidity;BMP_temperature;BMP_pressure;BME280_temperature;BME280_humidity;BME280_pressure;Samples;Min_cycle;Max_cycle;Signal;HPM_P1;HPM_P2
2023/10/11 00:05:19;;;;;;;50.10;36.10;;;;;;;11.54;92.17;99107.79;225477;1283;138874;-78
2023/10/11 00:10:30;;;;;;;48.80;35.90;;;;;;;11.61;92.24;99100.36;225428;1282;139043;-78
2023/10/11 00:15:36;;;;;;;48.40;34.30;;;;;;;11.68;92.39;99094.34;225368;1282;138741;-78
2023/10/11 00:21:15;;;;;;;57.70;39.00;;;;;;;11.76;92.64;99096.48;225067;1286;138827;-79
2023/10/11 00:26:20;;;;;;;56.80;38.30;;;;;;;11.83;92.79;99089.69;225088;1284;23650;-78
2023/10/11 00:31:39;;;;;;;50.60;37.20;;;;;;;11.88;92.75;99084.40;225071;1285;138501;-78
2023/10/11 00:36:55;;;;;;;50.80;35.20;;;;;;;11.95;92.86;99081.86;224943;1285;138629;-78
2023/10/11 00:42:59;;;;;;;48.60;35.60;;;;;;;12.01;92.78;99078.09;225049;1274;138908;-78
2023/10/11 00:48:29;;;;;;;50.20;34.80;;;;;;;12.07;92.88;99069.33;224550;1289;138798;-78
2023/10/11 00:53:38;;;;;;;42.20;33.60;;;;;;;12.13;92.82;99066.30;224893;1287;138934;-78
2023/10/11 00:58:43;;;;;;;41.30;32.50;;;;;;;12.20;92.89;99063.33;224867;1283;138785;-78
2023/10/11 01:03:47;;;;;;;41.60;31.90;;;;;;;12.28;93.15;99059.83;224904;1282;139617;-78
2023/10/11 01:09:04;;;;;;;40.80;32.00;;;;;;;12.37;93.30;99053.73;224869;1287;22575;-79
2023/10/11 01:14:13;;;;;;;42.40;32.70;;;;;;;12.46;93.26;99043.27;224935;1283;22946;-78
2023/10/11 01:19:51;;;;;;;39.10;29.50;;;;;;;12.55;93.43;99043.17;225139;1283;138680;-78
2023/10/11 01:25:04;;;;;;;38.40;30.40;;;;;;;12.66;93.31;99039.25;225313;1283;138800;-78
2023/10/11 01:30:10;;;;;;;36.60;30.00;;;;;;;12.76;93.44;99036.16;225292;1282;138993;-77
2023/10/11 01:35:22;;;;;;;33.90;27.30;;;;;;;12.85;93.52;99039.84;225416;1281;138791;-78
2023/10/11 01:40:24;;;;;;;35.20;28.00;;;;;;;12.94;93.45;99033.97;225321;1281;138839;-77
2023/10/11 01:45:27;;;;;;;35.00;27.90;;;;;;;13.03;93.67;99032.52;222935;1282;3145622;-77
2023/10/11 01:50:33;;;;;;;39.70;28.80;;;;;;;13.12;93.43;99039.80;225413;1283;22536;-79
2023/10/11 01:55:39;;;;;;;37.00;28.80;;;;;;;13.16;93.26;99042.96;225541;1281;138594;-79
2023/10/11 02:00:55;;;;;;;34.10;26.90;;;;;;;13.21;93.28;99041.59;225394;1277;138768;-78
2023/10/11 02:05:57;;;;;;;34.30;27.10;;;;;;;13.26;93.38;99042.42;225444;1278;139342;-77
2023/10/11 02:11:15;;;;;;;32.10;25.80;;;;;;;13.30;93.32;99041.17;225390;1283;138899;-77
2023/10/11 02:16:19;;;;;;;29.70;25.60;;;;;;;13.34;93.20;99033.69;225317;1280;138825;-77
2023/10/11 02:21:29;;;;;;;33.70;26.40;;;;;;;13.40;93.28;99033.27;225380;1280;138743;-78
2023/10/11 02:26:38;;;;;;;31.10;24.60;;;;;;;13.46;93.15;99027.88;225404;1280;23399;-77
2023/10/11 02:31:41;;;;;;;26.80;23.20;;;;;;;13.52;93.14;99024.77;225341;1283;138387;-78
2023/10/11 02:37:11;;;;;;;28.60;23.60;;;;;;;13.57;93.23;99023.23;225379;1280;139048;-78
2023/10/11 02:42:19;;;;;;;26.60;23.50;;;;;;;13.62;93.23;99014.48;225312;1283;138944;-77
2023/10/11 02:47:23;;;;;;;26.00;22.20;;;;;;;13.65;92.86;99012.11;225463;1259;138758;-77
2023/10/11 02:52:35;;;;;;;25.30;21.30;;;;;;;13.68;92.69;99013.66;225423;1281;139057;-77
2023/10/11 02:57:41;;;;;;;22.90;20.30;;;;;;;13.72;92.84;99017.14;225494;1280;138848;-77
2023/10/11 03:03:03;;;;;;;29.00;20.90;;;;;;;13.75;92.69;99016.01;225561;1281;22539;-77
2023/10/11 03:08:16;;;;;;;21.30;19.00;;;;;;;13.79;92.49;99008.02;225582;1281;24213;-79
2023/10/11 03:13:43;;;;;;;24.60;18.80;;;;;;;13.81;92.58;99007.66;225397;1283;138470;-78
2023/10/11 03:18:59;;;;;;;25.80;18.30;;;;;;;13.85;92.44;99002.08;225429;1283;139012;-78
2023/10/11 03:24:05;;;;;;;21.40;18.80;;;;;;;13.88;92.24;98997.88;225514;1282;138863;-77
2023/10/11 03:29:17;;;;;;;21.30;17.70;;;;;;;13.93;92.35;98993.23;225408;1283;138920;-77
2023/10/11 03:34:57;;;;;;;19.20;15.80;;;;;;;13.97;92.48;98995.50;225389;1283;138775;-78
2023/10/11 03:40:34;;;;;;;19.60;16.10;;;;;;;14.02;92.22;98993.91;225514;1282;139033;-78
2023/10/11 03:45:49;;;;;;;23.30;18.50;;;;;;;14.07;92.20;98996.79;225491;1279;138777;-78
2023/10/11 03:50:56;;;;;;;19.60;15.90;;;;;;;14.13;92.09;98988.91;225515;1282;22550;-78
2023/10/11 03:55:58;;;;;;;20.50;15.60;;;;;;;14.17;92.03;98985.73;225383;1282;138351;-78
2023/10/11 04:06:25;;;;;;;20.80;15.10;;;;;;;14.24;91.77;98978.52;224968;1281;139595;-78
2023/10/11 04:12:08;;;;;;;;;;;;;;;;;;;;;
2023/10/11 04:22:24;;;;;;;17.80;13.60;;;;;;;14.36;91.25;98985.05;225154;1281;138771;-78
2023/10/11 04:32:41;;;;;;;17.10;13.30;;;;;;;14.41;91.12;98980.69;225280;1283;22569;-80
2023/10/11 04:37:54;;;;;;;18.60;13.80;;;;;;;14.42;90.89;98974.95;225065;1266;138545;-78
2023/10/11 04:54:12;;;;;;;17.10;14.20;;;;;;;14.47;90.68;98974.38;225214;1283;138759;-78
2023/10/11 04:59:27;;;;;;;19.30;13.30;;;;;;;14.48;90.46;98975.12;225073;1283;138775;-77
2023/10/11 05:04:34;;;;;;;18.70;12.80;;;;;;;14.49;90.75;98975.98;225161;1283;138308;-78
2023/10/11 05:09:52;;;;;;;15.70;12.10;;;;;;;14.49;90.60;98974.95;225073;1280;138766;-77
2023/10/11 05:15:15;;;;;;;18.90;13.70;;;;;;;14.47;90.26;98977.16;224945;1283;138954;-77
2023/10/11 05:20:44;;;;;;;16.60;12.80;;;;;;;14.43;90.38;98977.38;225320;1283;22548;-77
2023/10/11 05:25:58;;;;;;;16.10;13.40;;;;;;;14.39;90.14;98978.79;225159;1282;138671;-77
2023/10/11 05:36:36;;;;;;;17.40;12.90;;;;;;;14.33;90.29;98989.35;224989;1283;138900;-77
2023/10/11 05:52:59;;;;;;;17.60;13.00;;;;;;;14.43;90.22;98980.15;225056;1279;138931;-77
2023/10/11 05:58:13;;;;;;;18.50;13.70;;;;;;;14.51;90.04;98977.98;225077;1273;138789;-79
2023/10/11 06:03:17;;;;;;;18.40;12.90;;;;;;;14.58;89.96;98977.99;224802;1264;139205;-79
2023/10/11 06:08:24;;;;;;;16.60;13.00;;;;;;;14.67;90.08;98983.74;224991;1277;22562;-78
2023/10/11 06:13:29;;;;;;;15.10;11.70;;;;;;;14.77;90.20;98986.17;224858;1274;139099;-74
2023/10/11 06:18:52;;;;;;;13.30;11.20;;;;;;;14.90;89.94;98990.28;224648;1276;138984;-72
2023/10/11 06:23:58;;;;;;;17.90;12.50;;;;;;;15.00;89.85;98990.04;224924;1277;138998;-77
2023/10/11 06:29:16;;;;;;;15.90;12.00;;;;;;;15.10;89.70;98988.70;224770;1266;139789;-79
2023/10/11 06:34:25;;;;;;;15.00;11.50;;;;;;;15.23;89.39;98991.06;224901;1279;139024;-79
2023/10/11 06:45:02;;;;;;;14.20;10.60;;;;;;;15.47;88.88;98989.06;225077;1273;23520;-81
2023/10/11 06:50:12;;;;;;;15.70;10.30;;;;;;;15.57;88.49;98994.56;225059;1269;137571;-80
2023/10/11 06:55:22;;;;;;;13.70;9.90;;;;;;;15.69;88.28;98994.91;224838;1278;138613;-80
2023/10/11 07:00:49;;;;;;;;;;;;;;;;;;;;;
2023/10/11 07:06:35;;;;;;;16.20;10.10;;;;;;;15.97;87.87;98987.04;225579;1276;138666;-79
2023/10/11 07:12:28;;;;;;;13.00;9.00;;;;;;;16.17;87.12;98982.79;225092;1281;138759;-86
2023/10/11 07:17:32;;;;;;;13.90;9.10;;;;;;;16.32;86.93;98981.72;224965;1277;138720;-79
2023/10/11 07:22:39;;;;;;;13.70;8.70;;;;;;;16.45;86.32;98981.63;224914;1270;138636;-78
2023/10/11 07:27:47;;;;;;;14.70;8.20;;;;;;;16.55;86.12;98983.69;224899;1276;138736;-80
2023/10/11 07:33:19;;;;;;;14.60;8.40;;;;;;;16.68;85.87;98979.88;225239;1276;26124;-82
2023/10/11 07:39:59;;;;;;;12.20;7.70;;;;;;;16.80;85.72;98981.60;225178;1268;23363;-83
2023/10/11 07:44:36;;;;;;;13.00;8.70;;;;;;;16.93;84.93;98986.27;225163;1266;24276;-85
2023/10/11 07:51:03;;;;;;;10.30;7.50;;;;;;;17.05;84.51;98987.66;225064;1276;138114;-86
2023/10/11 07:56:47;;;;;;;13.20;7.90;;;;;;;17.19;84.28;98987.52;225255;1283;22654;-84
2023/10/11 08:02:52;;;;;;;;;;;;;;;;;;;;;
2023/10/11 08:09:18;;;;;;;9.70;7.00;;;;;;;17.46;83.04;98990.28;225046;1284;22589;-83
2023/10/11 08:15:41;;;;;;;13.30;7.20;;;;;;;17.66;83.01;98990.89;225037;1282;22543;-83
2023/10/11 08:21:32;;;;;;;12.40;7.20;;;;;;;17.82;82.12;98992.90;225171;1277;22579;-83
2023/10/11 08:27:41;;;;;;;;;;;;;;;;;;;;;
2023/10/11 08:33:53;;;;;;;11.20;7.00;;;;;;;18.17;81.54;98983.42;225181;1280;22544;-82
2023/10/11 08:39:54;;;;;;;;;;;;;;;;;;;;;
2023/10/11 08:45:47;;;;;;;;;;;;;;;;;;;;;
2023/10/11 08:51:24;;;;;;;;;;;;;;;;;;;;;
2023/10/11 08:57:02;;;;;;;14.30;6.30;;;;;;;19.00;79.09;98981.09;224612;1280;138650;-84
2023/10/11 09:02:33;;;;;;;12.90;6.30;;;;;;;19.20;78.71;98972.03;224252;1289;138668;-84
2023/10/11 09:07:45;;;;;;;14.40;6.00;;;;;;;19.34;78.01;98972.98;224173;1287;138700;-84
2023/10/11 09:13:10;;;;;;;14.10;5.80;;;;;;;19.38;77.06;98974.48;224571;1283;138819;-84
2023/10/11 09:25:33;;;;;;;17.70;6.30;;;;;;;19.47;75.84;98974.69;224911;1273;138746;-84
2023/10/11 09:31:38;;;;;;;;;;;;;;;;;;;;;
2023/10/11 09:37:54;;;;;;;;;;;;;;;;;;;;;
2023/10/11 09:43:51;;;;;;;8.10;5.30;;;;;;;19.77;75.58;98959.09;225147;1284;138145;-89
2023/10/11 09:49:41;;;;;;;9.40;5.40;;;;;;;20.02;75.13;98958.17;224965;1279;138607;-72
2023/10/11 09:55:58;;;;;;;7.80;5.00;;;;;;;20.25;74.50;98958.52;224460;1289;138505;-88
2023/10/11 10:02:46;;;;;;;8.90;4.30;;;;;;;20.54;73.39;98948.48;224722;1273;138683;-89
2023/10/11 10:15:56;;;;;;;;;;;;;;;;;;;;;
2023/10/11 10:22:27;;;;;;;438.80;54.00;;;;;;;21.31;71.35;98940.77;224768;1287;22642;-88
2023/10/11 10:28:42;;;;;;;18.40;5.50;;;;;;;21.39;70.02;98936.54;224853;1287;22563;-87
2023/10/11 10:34:54;;;;;;;18.00;5.70;;;;;;;21.44;69.66;98935.40;225022;1287;22572;-87
2023/10/11 10:42:00;;;;;;;10.00;4.40;;;;;;;21.40;69.33;98937.41;224989;1287;22552;-87
2023/10/11 10:46:54;;;;;;;5.90;4.50;;;;;;;21.44;69.43;98935.79;225007;1284;22576;-84
2023/10/11 10:52:30;;;;;;;10.90;4.50;;;;;;;21.52;68.57;98929.03;225183;1283;22578;-83
2023/10/11 10:58:19;;;;;;;8.40;4.20;;;;;;;21.62;69.43;98928.26;225390;1283;22557;-82
2023/10/11 11:03:35;;;;;;;11.30;4.70;;;;;;;21.68;68.78;98925.02;225396;1260;22556;-82
2023/10/11 11:08:43;;;;;;;6.10;3.90;;;;;;;21.68;68.15;98923.35;224512;1289;22579;-79
2023/10/11 11:14:23;;;;;;;7.50;4.50;;;;;;;21.74;67.37;98909.70;224362;1286;22546;-80
2023/10/11 11:19:46;;;;;;;6.50;4.30;;;;;;;21.86;66.82;98903.55;224253;1288;22590;-81
2023/10/11 11:30:36;;;;;;;7.90;3.80;;;;;;;22.07;64.94;98900.13;225163;1279;22542;-81
2023/10/11 11:35:54;;;;;;;9.70;3.90;;;;;;;22.05;63.98;98888.58;225177;1277;26044;-83
2023/10/11 11:41:16;;;;;;;6.80;4.20;;;;;;;22.13;64.70;98883.41;225147;1280;22549;-80
2023/10/11 11:46:44;;;;;;;10.10;4.20;;;;;;;22.24;63.63;98878.20;225057;1277;22922;-80
2023/10/11 11:51:55;;;;;;;10.30;4.40;;;;;;;22.23;63.51;98868.30;225156;1283;22578;-80
2023/10/11 11:56:58;;;;;;;9.00;4.20;;;;;;;22.32;64.25;98873.50;225237;1264;22698;-81
2023/10/11 12:02:02;;;;;;;6.90;3.80;;;;;;;22.32;64.58;98867.08;225168;1283;24271;-82
2023/10/11 12:07:12;;;;;;;8.70;4.00;;;;;;;22.18;64.88;98865.09;225059;1277;22500;-83
2023/10/11 12:12:15;;;;;;;6.90;4.00;;;;;;;22.06;64.84;98865.88;225144;1280;25259;-84
2023/10/11 12:18:15;;;;;;;8.50;4.20;;;;;;;21.94;65.27;98854.05;225268;1283;24214;-81
2023/10/11 12:24:22;;;;;;;7.30;3.80;;;;;;;21.91;65.17;98849.52;225320;1275;22591;-84
2023/10/11 12:30:46;;;;;;;;;;;;;;;;;;;;;
2023/10/11 12:36:21;;;;;;;7.20;4.10;;;;;;;22.07;64.81;98851.90;225087;1283;22554;-83
2023/10/11 12:41:28;;;;;;;11.70;4.60;;;;;;;22.20;64.53;98843.25;225170;1283;22578;-83
2023/10/11 12:46:52;;;;;;;10.90;4.30;;;;;;;22.26;64.06;98840.73;225063;1280;22606;-83
2023/10/11 12:52:37;;;;;;;8.80;4.30;;;;;;;22.18;64.11;98830.73;225026;1276;22593;-80
2023/10/11 12:58:36;;;;;;;8.60;5.30;;;;;;;22.05;64.27;98835.09;225242;1283;22655;-79
2023/10/11 13:04:17;;;;;;;;;;;;;;;;;;;;;
2023/10/11 13:09:39;;;;;;;5.60;3.70;;;;;;;21.96;64.32;98843.94;225202;1276;22546;-80
2023/10/11 13:15:00;;;;;;;11.70;4.00;;;;;;;21.93;64.68;98836.34;225113;1276;22568;-80
2023/10/11 13:20:18;;;;;;;7.80;3.50;;;;;;;21.86;65.17;98840.69;225161;1280;22596;-79
2023/10/11 13:25:39;;;;;;;8.50;4.30;;;;;;;21.76;65.06;98835.90;225254;1276;22559;-78
2023/10/11 13:30:56;;;;;;;6.30;3.70;;;;;;;21.71;65.45;98838.27;219817;1305;545152;-79
2023/10/11 13:36:21;;;;;;;9.40;4.70;;;;;;;21.64;65.68;98842.17;224844;1269;22734;-78
2023/10/11 13:41:56;;;;;;;9.30;4.20;;;;;;;21.56;65.87;98839.79;224765;1269;295543;-77
2023/10/11 13:48:09;;;;;;;8.00;3.80;;;;;;;21.36;65.88;98835.17;225067;1279;22939;-78
2023/10/11 13:54:26;;;;;;;10.40;4.00;;;;;;;21.18;66.51;98844.95;226806;1262;22552;-79
2023/10/11 14:00:22;;;;;;;9.50;4.50;;;;;;;21.06;66.78;98840.89;226600;1269;22562;-81
2023/10/11 14:11:42;;;;;;;11.20;4.20;;;;;;;21.10;67.45;98831.58;226554;1274;22659;-81
2023/10/11 14:17:15;;;;;;;;;;;;;;;;;;;;;
2023/10/11 14:23:10;;;;;;;7.30;5.00;;;;;;;21.19;67.24;98835.00;226764;1274;22995;-82
2023/10/11 14:28:45;;;;;;;8.90;4.10;;;;;;;21.20;66.87;98825.80;226681;1269;23086;-81
2023/10/11 14:35:00;;;;;;;11.70;4.80;;;;;;;21.14;67.12;98813.67;227065;1264;27290;-81
2023/10/11 14:40:34;;;;;;;10.60;4.60;;;;;;;20.95;67.12;98812.16;226965;1275;22537;-81
2023/10/11 14:52:44;;;;;;;8.00;4.80;;;;;;;20.63;68.26;98808.61;226728;1271;22559;-81
2023/10/11 14:58:06;;;;;;;9.30;4.40;;;;;;;20.59;68.76;98807.66;227078;1275;22547;-82
2023/10/11 15:03:09;;;;;;;7.20;4.40;;;;;;;20.59;69.11;98812.38;226948;1275;22552;-80
2023/10/11 15:08:15;;;;;;;8.90;4.70;;;;;;;20.55;69.43;98812.92;227010;1272;22538;-82
2023/10/11 15:13:58;;;;;;;;;;;;;;;;;;;;;
2023/10/11 15:19:37;;;;;;;10.40;4.30;;;;;;;20.31;69.32;98818.15;226902;1275;22562;-81
2023/10/11 15:24:50;;;;;;;8.50;4.90;;;;;;;20.12;69.30;98824.70;226990;1275;25256;-80
2023/10/11 15:30:44;;;;;;;8.50;5.00;;;;;;;19.88;69.40;98823.79;226808;1262;22547;-82
2023/10/11 15:37:12;;;;;;;;;;;;;;;;;;;;;
2023/10/11 15:43:03;;;;;;;14.60;5.40;;;;;;;19.36;70.25;98829.80;227073;1275;23194;-81
2023/10/11 15:56:34;;;;;;;10.90;5.20;;;;;;;18.86;71.27;98817.95;225805;1281;22551;-81
2023/10/11 16:03:08;;;;;;;9.60;6.00;;;;;;;18.60;71.87;98830.90;225446;1281;22535;-81
2023/10/11 16:09:56;;;;;;;;;;;;;;;;;;;;;
2023/10/11 16:24:09;;;;;;;9.70;5.80;;;;;;;17.96;73.14;98837.48;227030;1275;22657;-81
2023/10/11 16:37:57;;;;;;;;;;;;;;;;;;;;;
2023/10/11 16:44:49;;;;;;;;;;;;;;;;;;;;;
2023/10/11 16:52:03;;;;;;;10.30;6.30;;;;;;;17.51;74.10;98884.71;226991;1275;22566;-81
2023/10/11 16:58:25;;;;;;;;;;;;;;;;;;;;;
2023/10/11 17:04:44;;;;;;;;;;;;;;;;;;;;;
2023/10/11 17:10:44;;;;;;;11.70;6.10;;;;;;;17.34;74.67;98878.38;226700;1276;25243;-81
2023/10/11 17:16:29;;;;;;;8.20;6.30;;;;;;;17.29;74.71;98881.40;226786;1276;22543;-82
2023/10/11 17:21:38;;;;;;;11.00;7.00;;;;;;;17.23;74.88;98883.36;226794;1272;22573;-81
2023/10/11 17:27:01;;;;;;;;;;;;;;;;;;;;;
2023/10/11 17:40:05;;;;;;;;;;;;;;;;;;;;;
2023/10/11 17:59:53;;;;;;;11.90;7.80;;;;;;;16.88;76.19;98852.95;226583;1275;22569;-80
2023/10/11 18:14:25;;;;;;;;;;;;;;;;;;;;;
2023/10/11 18:20:35;;;;;;;13.40;7.20;;;;;;;16.82;76.66;98860.05;226287;1276;22531;-81
2023/10/11 18:26:22;;;;;;;13.10;8.30;;;;;;;16.77;77.10;98864.65;226734;1276;22552;-80
2023/10/11 18:32:36;;;;;;;;;;;;;;;;;;;;;
2023/10/11 18:39:18;;;;;;;;;;;;;;;;;;;;;
2023/10/11 18:45:13;;;;;;;13.80;8.90;;;;;;;16.48;77.71;98861.58;226858;1276;22568;-81
2023/10/11 18:51:01;;;;;;;11.80;8.70;;;;;;;16.42;78.54;98856.77;226751;1276;22559;-81
2023/10/11 18:56:41;;;;;;;;;;;;;;;;;;;;;
2023/10/11 19:02:09;;;;;;;14.60;9.10;;;;;;;16.30;78.60;98848.79;226709;1273;25904;-81
2023/10/11 19:07:22;;;;;;;13.50;8.70;;;;;;;16.23;79.05;98845.98;226969;1272;22556;-81
2023/10/11 19:12:30;;;;;;;16.00;9.30;;;;;;;16.18;79.30;98843.02;226933;1270;25919;-81
2023/10/11 19:17:50;;;;;;;14.00;8.50;;;;;;;16.15;79.43;98841.24;226904;1266;22540;-80
2023/10/11 19:23:28;;;;;;;12.80;8.20;;;;;;;16.10;79.75;98844.86;226920;1275;23088;-80
2023/10/11 19:29:09;;;;;;;;;;;;;;;;;;;;;
2023/10/11 19:35:01;;;;;;;11.20;8.40;;;;;;;16.01;80.22;98834.89;226782;1272;24392;-81
2023/10/11 19:40:44;;;;;;;12.70;8.70;;;;;;;15.95;80.00;98832.36;226830;1276;22548;-81
2023/10/11 19:46:11;;;;;;;15.80;8.30;;;;;;;15.92;80.78;98829.06;226678;1272;22944;-81
2023/10/11 19:51:39;;;;;;;12.40;7.80;;;;;;;15.90;80.97;98822.80;226777;1276;22545;-83
2023/10/11 19:57:07;;;;;;;15.00;8.60;;;;;;;15.87;80.90;98822.65;226771;1275;22575;-81
2023/10/11 20:02:21;;;;;;;14.00;8.30;;;;;;;15.85;81.14;98819.71;227014;1275;22547;-81
2023/10/11 20:07:23;;;;;;;13.10;8.30;;;;;;;15.83;81.09;98818.67;226975;1269;22537;-82
2023/10/11 20:12:25;;;;;;;11.20;7.50;;;;;;;15.78;81.09;98815.55;227129;1270;22557;-82
2023/10/11 20:17:29;;;;;;;13.10;7.70;;;;;;;15.76;81.54;98813.27;227128;1275;22570;-81
2023/10/11 20:22:56;;;;;;;13.00;7.90;;;;;;;15.76;81.58;98818.03;227098;1272;22517;-82
2023/10/11 20:28:09;;;;;;;13.60;8.40;;;;;;;15.77;81.85;98812.77;226993;1273;25232;-81
2023/10/11 20:33:33;;;;;;;15.90;8.10;;;;;;;15.78;81.73;98810.80;227037;1275;22530;-82
2023/10/11 20:38:45;;;;;;;13.80;8.10;;;;;;;15.81;81.69;98808.35;227121;1275;22571;-81
2023/10/11 20:43:53;;;;;;;11.30;8.40;;;;;;;15.82;82.04;98796.29;226954;1272;22540;-81
2023/10/11 20:49:33;;;;;;;14.80;8.10;;;;;;;15.80;81.83;98786.10;227030;1275;22561;-81
2023/10/11 20:55:20;;;;;;;12.30;7.70;;;;;;;15.81;82.23;98783.52;226942;1275;22556;-80
2023/10/11 21:01:18;;;;;;;;;;;;;;;;;;;;;
2023/10/11 21:14:44;;;;;;;9.50;6.60;;;;;;;15.97;82.43;98774.48;226710;1275;22557;-81
2023/10/11 21:20:52;;;;;;;10.50;6.80;;;;;;;16.00;82.30;98775.12;227044;1275;22549;-80
2023/10/11 21:33:54;;;;;;;11.20;6.20;;;;;;;16.01;82.11;98764.73;226509;1275;25036;-81
2023/10/11 21:40:23;;;;;;;;;;;;;;;;;;;;;
2023/10/11 21:52:50;;;;;;;9.20;6.30;;;;;;;15.97;82.00;98746.24;226911;1273;22543;-80
2023/10/11 21:59:35;;;;;;;9.30;5.90;;;;;;;15.94;81.92;98735.48;227052;1275;22671;-81
2023/10/11 22:05:39;;;;;;;11.40;6.20;;;;;;;15.92;81.95;98733.17;226986;1269;22586;-81
2023/10/11 22:12:00;;;;;;;;;;;;;;;;;;;;;
2023/10/11 22:18:58;;;;;;;9.20;5.60;;;;;;;15.88;82.33;98720.19;226801;1275;22543;-80
2023/10/11 22:25:54;;;;;;;;;;;;;;;;;;;;;
2023/10/11 22:32:07;;;;;;;10.80;5.40;;;;;;;15.91;82.38;98718.14;226874;1275;22562;-81
2023/10/11 22:38:32;;;;;;;;;;;;;;;;;;;;;
2023/10/11 22:44:19;;;;;;;;;;;;;;;;;;;;;
2023/10/11 22:57:49;;;;;;;;;;;;;;;;;;;;;
2023/10/11 23:04:01;;;;;;;;;;;;;;;;;;;;;
2023/10/11 23:17:22;;;;;;;9.30;5.20;;;;;;;15.59;82.33;98729.79;226195;1279;22543;-80
2023/10/11 23:31:30;;;;;;;7.40;5.30;;;;;;;15.46;82.48;98748.48;225994;1276;24937;-80
2023/10/11 23:37:25;;;;;;;;;;;;;;;;;;;;;
